Portada
METAR-TAF:

METAR-TAF

Aeroports :

Guernsey,

latitud: 49-26N, longitud: 002-36W, altitud: 102 m

Observació

L'informe es va fer fa 38 minuts, a les 10:20 UTC
Vent 17 kt del Sud-Oest
Temperatura 9°C
Humitat 76%
Pressió 1028 hPa
Visibilitat 10 km o més
Escasses núvols a una alçada de 1800 ft
Núvols disperses a una alçada de 3200 ft

METAR: EGJB 211020Z 23017KT 9999 FEW018 SCT032 09/05 Q1028

Hora: 10:58 (10:58 UTC)

Pronòstic

L'informe es va fer fa 3 hores i 0 minuts, a les 07:58 UTC
Pronòstic vàlid del 21 a les 09 UTC al 21 a les 18 UTC
Vent 19 kt del Sud-Oest
Visibilitat 10 km o més
Escasses núvols a una alçada de 1900 ft
Núvols disperses a una alçada de 3700 ft

TAF: EGJB 210758Z 2109/2118 23019KT 9999 FEW019 SCT037

Observacions i pronòstics meteorològics de més de 4000 aeroports (METAR i TAF).

Les estacions disponibles són els punts grocs i vermells al mapa.

Posi el ratolí al punt desitjat per veure el nom de l'estació.

Feu clic per veure les observacions i els pronòstics meteorològics.

Per canviar el mapa: feu clic els botons verds amb una creu de color negre per apropar; al botó verd amb un guió per allunyar la imatge; o en les fletxes verdes per a mapes adjacents.


METAR-TAF: